sensor_id;sensor_type;location;lat;lon;timestamp;pressure;altitude;pressure_sealevel;temperature;humidity
12182;BME280;6154;51.550;12.138;2023-02-28T00:01:26;101977.09;;;6.61;52.27
12182;BME280;6154;51.550;12.138;2023-02-28T00:03:55;101972.66;;;6.65;52.14
12182;BME280;6154;51.550;12.138;2023-02-28T00:06:23;101966.47;;;6.68;52.19
12182;BME280;6154;51.550;12.138;2023-02-28T00:08:53;101959.44;;;6.68;52.05
12182;BME280;6154;51.550;12.138;2023-02-28T00:11:21;101966.41;;;6.71;51.92
12182;BME280;6154;51.550;12.138;2023-02-28T00:13:49;101968.19;;;6.72;51.89
12182;BME280;6154;51.550;12.138;2023-02-28T00:16:19;101964.66;;;6.73;51.70
12182;BME280;6154;51.550;12.138;2023-02-28T00:18:48;101974.38;;;6.68;51.88
12182;BME280;6154;51.550;12.138;2023-02-28T00:21:18;101967.44;;;6.62;52.10
12182;BME280;6154;51.550;12.138;2023-02-28T00:23:46;101979.72;;;6.60;52.31
12182;BME280;6154;51.550;12.138;2023-02-28T00:26:16;101972.72;;;6.62;52.26
12182;BME280;6154;51.550;12.138;2023-02-28T00:28:48;101969.19;;;6.63;52.20
12182;BME280;6154;51.550;12.138;2023-02-28T00:31:19;101969.19;;;6.63;52.17
12182;BME280;6154;51.550;12.138;2023-02-28T00:33:47;101966.56;;;6.63;52.25
12182;BME280;6154;51.550;12.138;2023-02-28T00:36:16;101970.06;;;6.60;51.98
12182;BME280;6154;51.550;12.138;2023-02-28T00:38:44;101967.44;;;6.62;52.13
12182;BME280;6154;51.550;12.138;2023-02-28T00:41:12;101971.88;;;6.57;51.93
12182;BME280;6154;51.550;12.138;2023-02-28T00:43:41;101974.56;;;6.54;52.20
12182;BME280;6154;51.550;12.138;2023-02-28T00:46:10;101969.31;;;6.51;52.54
12182;BME280;6154;51.550;12.138;2023-02-28T00:48:38;101975.50;;;6.48;52.52
12182;BME280;6154;51.550;12.138;2023-02-28T00:51:06;101974.69;;;6.45;52.63
12182;BME280;6154;51.550;12.138;2023-02-28T00:53:34;101976.44;;;6.44;52.54
12182;BME280;6154;51.550;12.138;2023-02-28T00:56:03;101973.00;;;6.38;52.53
12182;BME280;6154;51.550;12.138;2023-02-28T00:58:32;101977.44;;;6.34;52.97
12182;BME280;6154;51.550;12.138;2023-02-28T01:01:01;101974.78;;;6.36;52.78
12182;BME280;6154;51.550;12.138;2023-02-28T01:03:30;101972.19;;;6.34;52.77
12182;BME280;6154;51.550;12.138;2023-02-28T01:05:58;101969.66;;;6.26;52.90
12182;BME280;6154;51.550;12.138;2023-02-28T01:08:28;101967.84;;;6.30;52.77
12182;BME280;6154;51.550;12.138;2023-02-28T01:10:57;101966.19;;;6.24;52.94
12182;BME280;6154;51.550;12.138;2023-02-28T01:13:25;101971.44;;;6.24;52.97
12182;BME280;6154;51.550;12.138;2023-02-28T01:15:57;101965.31;;;6.21;53.01
12182;BME280;6154;51.550;12.138;2023-02-28T01:18:27;101972.37;;;6.17;53.14
12182;BME280;6154;51.550;12.138;2023-02-28T01:20:57;101970.66;;;6.16;53.20
12182;BME280;6154;51.550;12.138;2023-02-28T01:23:25;101971.53;;;6.15;53.34
12182;BME280;6154;51.550;12.138;2023-02-28T01:25:53;101974.16;;;6.15;53.41
12182;BME280;6154;51.550;12.138;2023-02-28T01:28:21;101972.50;;;6.08;53.68
12182;BME280;6154;51.550;12.138;2023-02-28T01:30:50;101964.63;;;6.07;53.69
12182;BME280;6154;51.550;12.138;2023-02-28T01:33:19;101969.88;;;6.08;53.37
12182;BME280;6154;51.550;12.138;2023-02-28T01:35:48;101961.09;;;6.08;53.38
12182;BME280;6154;51.550;12.138;2023-02-28T01:38:16;101964.59;;;6.08;53.38
12182;BME280;6154;51.550;12.138;2023-02-28T01:40:49;101961.91;;;6.14;53.21
12182;BME280;6154;51.550;12.138;2023-02-28T01:43:21;101959.31;;;6.11;53.51
12182;BME280;6154;51.550;12.138;2023-02-28T01:45:51;101957.53;;;6.15;53.25
12182;BME280;6154;51.550;12.138;2023-02-28T01:48:21;101958.41;;;6.15;53.20
12182;BME280;6154;51.550;12.138;2023-02-28T01:50:54;101954.84;;;6.18;52.99
12182;BME280;6154;51.550;12.138;2023-02-28T01:53:28;101960.97;;;6.18;53.03
12182;BME280;6154;51.550;12.138;2023-02-28T01:56:00;101962.75;;;6.16;52.95
12182;BME280;6154;51.550;12.138;2023-02-28T01:58:31;101956.66;;;6.14;53.04
12182;BME280;6154;51.550;12.138;2023-02-28T02:01:00;101957.62;;;6.07;53.28
12182;BME280;6154;51.550;12.138;2023-02-28T02:03:30;101958.47;;;6.09;53.24
12182;BME280;6154;51.550;12.138;2023-02-28T02:06:00;101949.69;;;6.12;52.98
12182;BME280;6154;51.550;12.138;2023-02-28T02:08:30;101944.44;;;6.09;53.12
12182;BME280;6154;51.550;12.138;2023-02-28T02:11:00;101949.81;;;6.02;52.93
12182;BME280;6154;51.550;12.138;2023-02-28T02:16:39;101942.03;;;5.93;53.63
12182;BME280;6154;51.550;12.138;2023-02-28T02:19:29;101948.16;;;5.88;53.89
12182;BME280;6154;51.550;12.138;2023-02-28T02:22:32;101945.53;;;5.88;53.63
12182;BME280;6154;51.550;12.138;2023-02-28T02:25:11;101938.53;;;5.93;53.20
12182;BME280;6154;51.550;12.138;2023-02-28T02:27:55;101940.28;;;5.88;53.29
12182;BME280;6154;51.550;12.138;2023-02-28T02:34:01;101933.34;;;5.82;53.72
12182;BME280;6154;51.550;12.138;2023-02-28T02:36:35;101938.59;;;5.81;53.51
12182;BME280;6154;51.550;12.138;2023-02-28T02:39:09;101946.47;;;5.84;53.25
12182;BME280;6154;51.550;12.138;2023-02-28T02:41:45;101934.22;;;5.81;53.37
12182;BME280;6154;51.550;12.138;2023-02-28T02:44:20;101942.91;;;5.88;53.29
12182;BME280;6154;51.550;12.138;2023-02-28T02:46:51;101938.53;;;5.87;53.24
12182;BME280;6154;51.550;12.138;2023-02-28T02:49:32;101940.25;;;5.94;53.04
12182;BME280;6154;51.550;12.138;2023-02-28T02:52:05;101936.69;;;5.99;52.84
12182;BME280;6154;51.550;12.138;2023-02-28T02:54:38;101944.56;;;5.99;52.96
12182;BME280;6154;51.550;12.138;2023-02-28T02:57:10;101936.75;;;5.95;53.11
12182;BME280;6154;51.550;12.138;2023-02-28T02:59:41;101934.16;;;5.90;53.56
12182;BME280;6154;51.550;12.138;2023-02-28T03:02:12;101939.38;;;5.95;53.56
12182;BME280;6154;51.550;12.138;2023-02-28T03:04:45;101935.88;;;5.90;53.73
12182;BME280;6154;51.550;12.138;2023-02-28T03:07:16;101949.84;;;5.96;53.51
12182;BME280;6154;51.550;12.138;2023-02-28T03:09:50;101942.91;;;5.88;54.04
12182;BME280;6154;51.550;12.138;2023-02-28T03:12:20;101949.00;;;5.90;54.17
12182;BME280;6154;51.550;12.138;2023-02-28T03:14:56;101952.47;;;5.98;53.84
12182;BME280;6154;51.550;12.138;2023-02-28T03:17:50;101944.66;;;5.93;53.18
12182;BME280;6154;51.550;12.138;2023-02-28T03:20:29;101947.94;;;6.09;52.68
12182;BME280;6154;51.550;12.138;2023-02-28T03:23:05;101944.38;;;6.15;52.67
12182;BME280;6154;51.550;12.138;2023-02-28T03:25:39;101946.97;;;6.18;53.10
12182;BME280;6154;51.550;12.138;2023-02-28T03:28:15;101941.69;;;6.19;52.98
12182;BME280;6154;51.550;12.138;2023-02-28T03:30:48;101952.19;;;6.19;52.96
12182;BME280;6154;51.550;12.138;2023-02-28T03:33:22;101950.50;;;6.17;52.94
12182;BME280;6154;51.550;12.138;2023-02-28T03:35:55;101951.25;;;6.26;52.70
12182;BME280;6154;51.550;12.138;2023-02-28T03:38:29;101953.81;;;6.32;52.59
12182;BME280;6154;51.550;12.138;2023-02-28T03:41:02;101944.12;;;6.34;52.54
12182;BME280;6154;51.550;12.138;2023-02-28T03:43:35;101948.44;;;6.39;52.53
12182;BME280;6154;51.550;12.138;2023-02-28T03:46:09;101957.19;;;6.41;52.55
12182;BME280;6154;51.550;12.138;2023-02-28T03:48:40;101946.66;;;6.44;52.42
12182;BME280;6154;51.550;12.138;2023-02-28T03:51:15;101951.94;;;6.41;52.87
12182;BME280;6154;51.550;12.138;2023-02-28T03:53:47;101957.28;;;6.34;53.18
12182;BME280;6154;51.550;12.138;2023-02-28T03:56:20;101951.09;;;6.37;52.88
12182;BME280;6154;51.550;12.138;2023-02-28T03:58:54;101961.59;;;6.39;52.59
12182;BME280;6154;51.550;12.138;2023-02-28T04:01:28;101957.22;;;6.38;52.35
12182;BME280;6154;51.550;12.138;2023-02-28T04:03:59;101951.25;;;6.26;52.28
12182;BME280;6154;51.550;12.138;2023-02-28T04:06:31;101957.44;;;6.22;52.40
12182;BME280;6154;51.550;12.138;2023-02-28T04:09:00;101960.19;;;6.13;52.56
12182;BME280;6154;51.550;12.138;2023-02-28T04:11:32;101967.09;;;6.19;52.57
12182;BME280;6154;51.550;12.138;2023-02-28T04:14:02;101958.38;;;6.17;52.61
12182;BME280;6154;51.550;12.138;2023-02-28T04:16:32;101968.03;;;6.16;52.37
12182;BME280;6154;51.550;12.138;2023-02-28T04:19:02;101961.09;;;6.09;52.19
12182;BME280;6154;51.550;12.138;2023-02-28T04:21:35;101956.75;;;6.07;52.13
12182;BME280;6154;51.550;12.138;2023-02-28T04:24:04;101959.41;;;6.05;52.07
12182;BME280;6154;51.550;12.138;2023-02-28T04:26:34;101959.44;;;6.02;52.07
12182;BME280;6154;51.550;12.138;2023-02-28T04:29:04;101959.47;;;5.97;52.16
12182;BME280;6154;51.550;12.138;2023-02-28T04:31:33;101956.03;;;5.91;52.25
12182;BME280;6154;51.550;12.138;2023-02-28T04:34:01;101960.44;;;5.86;52.35
12182;BME280;6154;51.550;12.138;2023-02-28T04:36:30;101971.88;;;5.82;52.45
12182;BME280;6154;51.550;12.138;2023-02-28T04:38:59;101970.16;;;5.77;52.42
12182;BME280;6154;51.550;12.138;2023-02-28T04:41:27;101970.19;;;5.76;52.54
12182;BME280;6154;51.550;12.138;2023-02-28T04:43:58;101967.62;;;5.71;52.65
12182;BME280;6154;51.550;12.138;2023-02-28T04:46:27;101969.37;;;5.69;52.43
12182;BME280;6154;51.550;12.138;2023-02-28T04:48:55;101958.84;;;5.71;52.15
12182;BME280;6154;51.550;12.138;2023-02-28T04:51:23;101962.37;;;5.68;51.86
12182;BME280;6154;51.550;12.138;2023-02-28T04:53:51;101967.59;;;5.70;51.62
12182;BME280;6154;51.550;12.138;2023-02-28T04:56:21;101973.72;;;5.70;51.22
12182;BME280;6154;51.550;12.138;2023-02-28T04:58:49;101968.53;;;5.66;51.59
12182;BME280;6154;51.550;12.138;2023-02-28T05:01:22;101968.50;;;5.67;51.99
12182;BME280;6154;51.550;12.138;2023-02-28T05:03:51;101970.34;;;5.62;52.49
12182;BME280;6154;51.550;12.138;2023-02-28T05:06:20;101972.97;;;5.59;52.33
12182;BME280;6154;51.550;12.138;2023-02-28T05:08:51;101976.47;;;5.58;52.08
12182;BME280;6154;51.550;12.138;2023-02-28T05:11:21;101968.69;;;5.52;51.76
12182;BME280;6154;51.550;12.138;2023-02-28T05:13:52;101973.84;;;5.60;51.21
12182;BME280;6154;51.550;12.138;2023-02-28T05:16:20;101969.41;;;5.66;51.24
12182;BME280;6154;51.550;12.138;2023-02-28T05:18:48;101972.94;;;5.61;51.07
12182;BME280;6154;51.550;12.138;2023-02-28T05:21:27;101977.44;;;5.49;52.39
12182;BME280;6154;51.550;12.138;2023-02-28T05:23:57;101978.38;;;5.42;52.70
12182;BME280;6154;51.550;12.138;2023-02-28T05:26:28;101978.38;;;5.44;52.35
12182;BME280;6154;51.550;12.138;2023-02-28T05:28:56;101976.72;;;5.34;52.98
12182;BME280;6154;51.550;12.138;2023-02-28T05:31:24;101981.06;;;5.36;52.91
12182;BME280;6154;51.550;12.138;2023-02-28T05:33:54;101979.37;;;5.28;53.34
12182;BME280;6154;51.550;12.138;2023-02-28T05:36:23;101990.84;;;5.16;53.70
12182;BME280;6154;51.550;12.138;2023-02-28T05:38:51;101988.19;;;5.19;53.17
12182;BME280;6154;51.550;12.138;2023-02-28T05:41:20;101985.59;;;5.16;53.01
12182;BME280;6154;51.550;12.138;2023-02-28T05:43:49;101990.00;;;5.12;52.82
12182;BME280;6154;51.550;12.138;2023-02-28T05:46:17;101995.25;;;5.12;52.96
12182;BME280;6154;51.550;12.138;2023-02-28T05:48:47;101989.97;;;5.15;53.00
12182;BME280;6154;51.550;12.138;2023-02-28T05:51:16;101996.97;;;5.15;53.03
12182;BME280;6154;51.550;12.138;2023-02-28T05:53:45;101996.97;;;5.13;53.08
12182;BME280;6154;51.550;12.138;2023-02-28T05:56:14;101995.25;;;5.12;52.88
12182;BME280;6154;51.550;12.138;2023-02-28T05:58:42;102003.09;;;5.11;52.87
12182;BME280;6154;51.550;12.138;2023-02-28T06:01:23;102006.63;;;5.08;53.04
12182;BME280;6154;51.550;12.138;2023-02-28T06:03:52;102018.94;;;4.97;53.84
12182;BME280;6154;51.550;12.138;2023-02-28T06:06:20;102005.00;;;4.92;53.33
12182;BME280;6154;51.550;12.138;2023-02-28T06:08:48;102012.03;;;4.84;53.42
12182;BME280;6154;51.550;12.138;2023-02-28T06:11:16;102014.69;;;4.78;53.72
12182;BME280;6154;51.550;12.138;2023-02-28T06:13:46;102012.09;;;4.73;53.63
12182;BME280;6154;51.550;12.138;2023-02-28T06:16:15;102020.00;;;4.66;53.78
12182;BME280;6154;51.550;12.138;2023-02-28T06:18:44;102012.16;;;4.61;53.68
12182;BME280;6154;51.550;12.138;2023-02-28T06:21:12;102018.31;;;4.48;53.83
12182;BME280;6154;51.550;12.138;2023-02-28T06:23:40;102016.59;;;4.51;53.60
12182;BME280;6154;51.550;12.138;2023-02-28T06:26:09;102020.94;;;4.49;53.52
12182;BME280;6154;51.550;12.138;2023-02-28T06:28:37;102027.13;;;4.31;54.22
12182;BME280;6154;51.550;12.138;2023-02-28T06:31:07;102026.28;;;4.22;54.65
12182;BME280;6154;51.550;12.138;2023-02-28T06:33:37;102031.53;;;4.19;54.80
12182;BME280;6154;51.550;12.138;2023-02-28T06:36:08;102027.16;;;4.25;54.70
12182;BME280;6154;51.550;12.138;2023-02-28T06:38:37;102041.09;;;4.29;55.02
12182;BME280;6154;51.550;12.138;2023-02-28T06:41:05;102038.47;;;4.30;55.21
12182;BME280;6154;51.550;12.138;2023-02-28T06:43:36;102044.56;;;4.37;55.17
12182;BME280;6154;51.550;12.138;2023-02-28T06:46:07;102041.06;;;4.44;55.23
12182;BME280;6154;51.550;12.138;2023-02-28T06:48:35;102041.91;;;4.54;54.99
12182;BME280;6154;51.550;12.138;2023-02-28T06:51:05;102044.47;;;4.66;54.51
12182;BME280;6154;51.550;12.138;2023-02-28T06:53:35;102036.56;;;4.75;54.09
12182;BME280;6154;51.550;12.138;2023-02-28T06:56:04;102047.03;;;4.81;53.91
12182;BME280;6154;51.550;12.138;2023-02-28T06:58:34;102042.63;;;4.86;53.66
12182;BME280;6154;51.550;12.138;2023-02-28T07:01:03;102053.09;;;4.88;54.27
12182;BME280;6154;51.550;12.138;2023-02-28T07:03:31;102054.00;;;4.82;55.23
12182;BME280;6154;51.550;12.138;2023-02-28T07:06:00;102057.50;;;4.84;55.20
12182;BME280;6154;51.550;12.138;2023-02-28T07:08:29;102047.03;;;4.81;54.94
12182;BME280;6154;51.550;12.138;2023-02-28T07:10:59;102046.97;;;4.89;54.44
12182;BME280;6154;51.550;12.138;2023-02-28T07:13:28;102047.91;;;4.82;54.29
12182;BME280;6154;51.550;12.138;2023-02-28T07:15:58;102060.13;;;4.81;54.57
12182;BME280;6154;51.550;12.138;2023-02-28T07:18:26;102064.50;;;4.84;54.43
12182;BME280;6154;51.550;12.138;2023-02-28T07:20:54;102060.13;;;4.78;54.42
12182;BME280;6154;51.550;12.138;2023-02-28T07:23:23;102066.28;;;4.70;55.09
12182;BME280;6154;51.550;12.138;2023-02-28T07:25:51;102067.09;;;4.81;54.65
12182;BME280;6154;51.550;12.138;2023-02-28T07:28:21;102071.50;;;4.76;54.76
12182;BME280;6154;51.550;12.138;2023-02-28T07:30:49;102068.88;;;4.76;54.82
12182;BME280;6154;51.550;12.138;2023-02-28T07:33:17;102068.00;;;4.83;54.82
12182;BME280;6154;51.550;12.138;2023-02-28T07:35:45;102072.31;;;4.87;54.67
12182;BME280;6154;51.550;12.138;2023-02-28T07:38:14;102067.97;;;4.86;55.05
12182;BME280;6154;51.550;12.138;2023-02-28T07:40:43;102070.56;;;4.92;54.55
12182;BME280;6154;51.550;12.138;2023-02-28T07:43:11;102067.87;;;5.00;54.25
12182;BME280;6154;51.550;12.138;2023-02-28T07:45:40;102076.69;;;4.91;54.54
12182;BME280;6154;51.550;12.138;2023-02-28T07:48:08;102078.41;;;5.01;54.67
12182;BME280;6154;51.550;12.138;2023-02-28T07:50:36;102073.00;;;5.26;54.63
12182;BME280;6154;51.550;12.138;2023-02-28T07:53:05;102081.63;;;5.43;54.51
12182;BME280;6154;51.550;12.138;2023-02-28T07:55:33;102085.00;;;5.62;54.84
12182;BME280;6154;51.550;12.138;2023-02-28T07:58:02;102082.09;;;5.97;54.60
12182;BME280;6154;51.550;12.138;2023-02-28T08:00:30;102083.66;;;6.16;54.13
12182;BME280;6154;51.550;12.138;2023-02-28T08:03:01;102079.00;;;6.41;53.85
12182;BME280;6154;51.550;12.138;2023-02-28T08:05:29;102077.87;;;6.65;53.23
12182;BME280;6154;51.550;12.138;2023-02-28T08:07:57;102078.41;;;6.90;53.19
12182;BME280;6154;51.550;12.138;2023-02-28T08:10:26;102084.34;;;7.06;52.78
12182;BME280;6154;51.550;12.138;2023-02-28T08:12:54;102080.47;;;7.31;52.53
12182;BME280;6154;51.550;12.138;2023-02-28T08:15:22;102084.56;;;7.52;51.98
12182;BME280;6154;51.550;12.138;2023-02-28T08:17:50;102083.41;;;7.68;51.79
12182;BME280;6154;51.550;12.138;2023-02-28T08:20:22;102083.16;;;7.84;51.48
12182;BME280;6154;51.550;12.138;2023-02-28T08:22:50;102081.53;;;7.76;50.68
12182;BME280;6154;51.550;12.138;2023-02-28T08:25:18;102077.97;;;7.79;50.95
12182;BME280;6154;51.550;12.138;2023-02-28T08:27:46;102074.00;;;8.04;51.49
12182;BME280;6154;51.550;12.138;2023-02-28T08:30:16;102080.63;;;8.27;51.40
12182;BME280;6154;51.550;12.138;2023-02-28T08:32:44;102077.13;;;8.26;49.77
12182;BME280;6154;51.550;12.138;2023-02-28T08:35:12;102075.81;;;8.52;50.68
12182;BME280;6154;51.550;12.138;2023-02-28T08:37:42;102080.25;;;8.48;49.34
12182;BME280;6154;51.550;12.138;2023-02-28T08:40:10;102086.81;;;8.72;49.67
12182;BME280;6154;51.550;12.138;2023-02-28T08:42:45;102079.50;;;8.85;49.80
12182;BME280;6154;51.550;12.138;2023-02-28T08:45:14;102073.97;;;8.97;49.20
12182;BME280;6154;51.550;12.138;2023-02-28T08:47:42;102081.41;;;9.18;50.01
12182;BME280;6154;51.550;12.138;2023-02-28T08:50:11;102078.75;;;9.18;49.60
12182;BME280;6154;51.550;12.138;2023-02-28T08:52:43;102076.09;;;9.20;48.58
12182;BME280;6154;51.550;12.138;2023-02-28T08:55:12;102081.97;;;9.33;49.02
12182;BME280;6154;51.550;12.138;2023-02-28T08:57:40;102074.72;;;9.42;49.13
12182;BME280;6154;51.550;12.138;2023-02-28T09:00:09;102079.88;;;9.47;47.79
12182;BME280;6154;51.550;12.138;2023-02-28T09:02:40;102073.94;;;9.37;47.50
12182;BME280;6154;51.550;12.138;2023-02-28T09:05:10;102074.88;;;9.35;47.53
12182;BME280;6154;51.550;12.138;2023-02-28T09:07:38;102079.88;;;9.47;48.14
12182;BME280;6154;51.550;12.138;2023-02-28T09:10:09;102078.06;;;9.49;46.67
12182;BME280;6154;51.550;12.138;2023-02-28T09:12:37;102074.28;;;9.59;46.26
12182;BME280;6154;51.550;12.138;2023-02-28T09:15:07;102078.47;;;9.68;46.92
12182;BME280;6154;51.550;12.138;2023-02-28T09:17:38;102078.06;;;9.49;45.10
12182;BME280;6154;51.550;12.138;2023-02-28T09:20:08;102075.88;;;9.66;46.37
12182;BME280;6154;51.550;12.138;2023-02-28T09:22:36;102086.12;;;9.78;45.33
12182;BME280;6154;51.550;12.138;2023-02-28T09:25:05;102076.84;;;9.98;46.29
12182;BME280;6154;51.550;12.138;2023-02-28T09:27:34;102077.66;;;10.00;42.21
12182;BME280;6154;51.550;12.138;2023-02-28T09:30:05;102079.62;;;10.27;44.24
12182;BME280;6154;51.550;12.138;2023-02-28T09:32:33;102077.53;;;10.39;44.39
12182;BME280;6154;51.550;12.138;2023-02-28T09:35:01;102082.53;;;10.17;42.26
12182;BME280;6154;51.550;12.138;2023-02-28T09:37:29;102079.09;;;10.13;43.83
12182;BME280;6154;51.550;12.138;2023-02-28T09:39:58;102081.81;;;10.10;43.33
12182;BME280;6154;51.550;12.138;2023-02-28T09:42:30;102079.91;;;10.15;44.84
12182;BME280;6154;51.550;12.138;2023-02-28T09:45:02;102089.44;;;10.24;43.81
12182;BME280;6154;51.550;12.138;2023-02-28T09:47:36;102079.62;;;10.27;44.23
12182;BME280;6154;51.550;12.138;2023-02-28T09:50:17;102073.00;;;10.44;43.96
12182;BME280;6154;51.550;12.138;2023-02-28T09:53:15;102079.53;;;10.63;43.65
12182;BME280;6154;51.550;12.138;2023-02-28T09:56:04;102082.94;;;10.67;43.30
12182;BME280;6154;51.550;12.138;2023-02-28T09:58:40;102081.06;;;11.00;45.72
12182;BME280;6154;51.550;12.138;2023-02-28T10:01:19;102085.81;;;11.18;44.79
12182;BME280;6154;51.550;12.138;2023-02-28T10:03:55;102081.78;;;11.34;44.36
12182;BME280;6154;51.550;12.138;2023-02-28T10:06:28;102087.25;;;11.00;45.35
12182;BME280;6154;51.550;12.138;2023-02-28T10:09:01;102092.53;;;11.00;44.60
12182;BME280;6154;51.550;12.138;2023-02-28T10:11:32;102092.91;;;10.57;42.64
12182;BME280;6154;51.550;12.138;2023-02-28T10:14:03;102088.88;;;10.44;43.33
12182;BME280;6154;51.550;12.138;2023-02-28T10:16:36;102085.94;;;10.54;43.42
12182;BME280;6154;51.550;12.138;2023-02-28T10:19:09;102082.78;;;10.73;44.77
12182;BME280;6154;51.550;12.138;2023-02-28T10:21:43;102083.00;;;10.94;42.75
12182;BME280;6154;51.550;12.138;2023-02-28T10:24:20;102083.44;;;11.09;43.46
12182;BME280;6154;51.550;12.138;2023-02-28T10:26:52;102079.72;;;11.44;43.77
12182;BME280;6154;51.550;12.138;2023-02-28T10:29:21;102076.91;;;11.48;45.33
12182;BME280;6154;51.550;12.138;2023-02-28T10:31:51;102073.53;;;11.70;45.60
12182;BME280;6154;51.550;12.138;2023-02-28T10:34:19;102059.75;;;11.87;43.87
12182;BME280;6154;51.550;12.138;2023-02-28T10:36:48;102068.22;;;11.98;45.72
12182;BME280;6154;51.550;12.138;2023-02-28T10:39:36;102062.97;;;11.96;44.68
12182;BME280;6154;51.550;12.138;2023-02-28T10:42:19;102062.34;;;11.88;41.25
12182;BME280;6154;51.550;12.138;2023-02-28T10:44:47;102060.56;;;12.15;42.06
12182;BME280;6154;51.550;12.138;2023-02-28T10:47:17;102064.88;;;12.18;45.19
12182;BME280;6154;51.550;12.138;2023-02-28T10:49:48;102053.94;;;12.27;45.63
12182;BME280;6154;51.550;12.138;2023-02-28T10:52:32;102050.19;;;12.32;44.85
12182;BME280;6154;51.550;12.138;2023-02-28T10:55:15;102047.53;;;12.32;41.71
12182;BME280;6154;51.550;12.138;2023-02-28T10:57:48;102050.03;;;12.60;42.25
12182;BME280;6154;51.550;12.138;2023-02-28T11:00:19;102047.91;;;12.47;42.53
12182;BME280;6154;51.550;12.138;2023-02-28T11:02:49;102044.94;;;12.31;42.84
12182;BME280;6154;51.550;12.138;2023-02-28T11:05:27;102041.09;;;12.15;42.71
12182;BME280;6154;51.550;12.138;2023-02-28T11:07:59;102049.50;;;11.76;39.81
12182;BME280;6154;51.550;12.138;2023-02-28T11:10:32;102039.97;;;11.97;44.46
12182;BME280;6154;51.550;12.138;2023-02-28T11:13:02;102037.16;;;12.26;45.71
12182;BME280;6154;51.550;12.138;2023-02-28T11:15:32;102041.78;;;12.45;44.14
12182;BME280;6154;51.550;12.138;2023-02-28T11:18:08;102043.06;;;12.58;44.62
12182;BME280;6154;51.550;12.138;2023-02-28T11:20:48;102036.81;;;12.35;42.75
12182;BME280;6154;51.550;12.138;2023-02-28T11:23:19;102033.19;;;12.61;44.40
12182;BME280;6154;51.550;12.138;2023-02-28T11:25:50;102041.62;;;12.73;45.37
12182;BME280;6154;51.550;12.138;2023-02-28T11:28:26;102041.44;;;12.77;44.57
12182;BME280;6154;51.550;12.138;2023-02-28T11:31:01;102040.00;;;12.69;41.90
12182;BME280;6154;51.550;12.138;2023-02-28T11:33:32;102038.09;;;12.49;41.60
12182;BME280;6154;51.550;12.138;2023-02-28T11:36:03;102033.31;;;12.58;43.35
12182;BME280;6154;51.550;12.138;2023-02-28T11:38:34;102039.66;;;12.54;43.41
12182;BME280;6154;51.550;12.138;2023-02-28T11:41:11;102038.59;;;12.58;43.31
12182;BME280;6154;51.550;12.138;2023-02-28T11:43:56;102039.84;;;12.73;43.91
12182;BME280;6154;51.550;12.138;2023-02-28T11:46:35;102032.94;;;12.91;42.90
12182;BME280;6154;51.550;12.138;2023-02-28T11:49:18;102031.38;;;12.62;42.45
12182;BME280;6154;51.550;12.138;2023-02-28T11:51:53;102036.87;;;12.57;39.23
12182;BME280;6154;51.550;12.138;2023-02-28T11:57:32;102032.66;;;12.52;40.76
12182;BME280;6154;51.550;12.138;2023-02-28T12:00:12;102024.88;;;12.71;41.58
12182;BME280;6154;51.550;12.138;2023-02-28T12:02:55;102024.34;;;12.61;38.63
12182;BME280;6154;51.550;12.138;2023-02-28T12:05:29;102019.78;;;12.41;39.83
12182;BME280;6154;51.550;12.138;2023-02-28T12:08:17;102024.19;;;12.65;43.62
12182;BME280;6154;51.550;12.138;2023-02-28T12:10:59;102015.97;;;12.95;40.78
12182;BME280;6154;51.550;12.138;2023-02-28T12:13:40;102014.81;;;12.79;41.91
12182;BME280;6154;51.550;12.138;2023-02-28T12:16:27;102017.00;;;12.91;40.36
12182;BME280;6154;51.550;12.138;2023-02-28T12:19:09;102011.16;;;13.05;39.48
12182;BME280;6154;51.550;12.138;2023-02-28T12:24:46;102004.09;;;13.04;40.56
12182;BME280;6154;51.550;12.138;2023-02-28T12:27:21;102004.28;;;12.99;41.00
12182;BME280;6154;51.550;12.138;2023-02-28T12:29:57;101998.22;;;13.17;42.99
12182;BME280;6154;51.550;12.138;2023-02-28T12:32:30;101998.56;;;13.32;42.29
12182;BME280;6154;51.550;12.138;2023-02-28T12:35:02;102000.09;;;13.15;41.88
12182;BME280;6154;51.550;12.138;2023-02-28T12:37:37;102000.16;;;13.14;41.30
12182;BME280;6154;51.550;12.138;2023-02-28T12:40:12;101991.56;;;13.07;40.58
12182;BME280;6154;51.550;12.138;2023-02-28T12:42:44;101991.12;;;13.18;43.24
12182;BME280;6154;51.550;12.138;2023-02-28T12:45:18;101986.25;;;13.29;44.20
12182;BME280;6154;51.550;12.138;2023-02-28T12:47:50;101984.25;;;13.56;43.15
12182;BME280;6154;51.550;12.138;2023-02-28T12:50:19;101976.16;;;13.37;40.95
12182;BME280;6154;51.550;12.138;2023-02-28T12:52:54;101984.66;;;13.67;43.50
12182;BME280;6154;51.550;12.138;2023-02-28T12:55:30;101969.88;;;13.80;41.64
12182;BME280;6154;51.550;12.138;2023-02-28T12:58:08;101967.81;;;13.67;38.37
12182;BME280;6154;51.550;12.138;2023-02-28T13:01:04;101968.38;;;13.75;39.91
12182;BME280;6154;51.550;12.138;2023-02-28T13:06:50;101956.72;;;13.57;37.55
12182;BME280;6154;51.550;12.138;2023-02-28T13:09:27;101953.81;;;13.41;39.17
12182;BME280;6154;51.550;12.138;2023-02-28T13:11:57;101943.19;;;13.41;42.12
12182;BME280;6154;51.550;12.138;2023-02-28T13:14:28;101952.66;;;13.48;40.87
12182;BME280;6154;51.550;12.138;2023-02-28T13:17:01;101949.91;;;13.50;41.37
12182;BME280;6154;51.550;12.138;2023-02-28T13:19:31;101953.59;;;13.47;41.44
12182;BME280;6154;51.550;12.138;2023-02-28T13:22:01;101954.81;;;13.39;40.96
12182;BME280;6154;51.550;12.138;2023-02-28T13:24:46;101955.63;;;13.41;42.16
12182;BME280;6154;51.550;12.138;2023-02-28T13:27:24;101954.38;;;13.49;38.68
12182;BME280;6154;51.550;12.138;2023-02-28T13:29:59;101950.91;;;13.47;38.66
12182;BME280;6154;51.550;12.138;2023-02-28T13:32:33;101944.50;;;13.73;41.79
12182;BME280;6154;51.550;12.138;2023-02-28T13:35:14;101939.28;;;13.50;40.92
12182;BME280;6154;51.550;12.138;2023-02-28T13:37:43;101938.09;;;13.77;38.15